createdAt,value
2016-10-19T00:01:01.234Z,927.22
2016-10-19T00:02:11.730Z,927.25
2016-10-19T00:05:23.740Z,927.32
2016-10-19T00:06:34.296Z,927.31
2016-10-19T00:07:44.811Z,927.27
2016-10-19T00:08:55.318Z,927.29
2016-10-19T00:10:05.914Z,927.26
2016-10-19T00:11:16.422Z,927.27
2016-10-19T00:12:26.952Z,927.27
2016-10-19T00:13:37.448Z,927.24
2016-10-19T00:14:47.989Z,927.24
2016-10-19T00:15:58.465Z,927.3
2016-10-19T00:17:08.986Z,927.32
2016-10-19T00:18:19.508Z,927.31
2016-10-19T00:19:30.010Z,927.29
2016-10-19T00:20:40.533Z,927.37
2016-10-19T00:21:51.020Z,927.36
2016-10-19T00:23:01.544Z,927.39
2016-10-19T00:24:12.014Z,927.41
2016-10-19T00:25:22.477Z,927.49
2016-10-19T00:26:32.961Z,927.5
2016-10-19T00:27:43.578Z,927.52
2016-10-19T00:28:54.056Z,927.5
2016-10-19T00:30:04.543Z,927.49
2016-10-19T00:31:15.049Z,927.48
2016-10-19T00:32:25.559Z,927.53
2016-10-19T00:33:36.188Z,927.55
2016-10-19T00:34:46.635Z,927.57
2016-10-19T00:35:57.102Z,927.56
2016-10-19T00:37:07.627Z,927.53
2016-10-19T00:38:18.080Z,927.54
2016-10-19T00:39:29.058Z,927.53
2016-10-19T00:40:39.513Z,927.53
2016-10-19T00:41:49.986Z,927.55
2016-10-19T00:43:00.488Z,927.53
2016-10-19T00:44:11.012Z,927.58
2016-10-19T00:45:21.512Z,927.63
2016-10-19T00:46:32.030Z,927.66
2016-10-19T00:47:42.566Z,927.65
2016-10-19T00:48:53.621Z,927.7
2016-10-19T00:50:04.091Z,927.71
2016-10-19T00:51:14.795Z,927.68
2016-10-19T00:52:25.335Z,927.68
2016-10-19T00:53:35.840Z,927.67
2016-10-19T00:54:46.341Z,927.65
2016-10-19T00:55:56.830Z,927.64
2016-10-19T00:57:08.844Z,927.65
2016-10-19T00:58:19.295Z,927.61
2016-10-19T00:59:29.795Z,927.6
2016-10-19T01:00:40.340Z,927.59
2016-10-19T01:01:50.813Z,927.57
2016-10-19T01:03:01.299Z,927.6
2016-10-19T01:04:11.797Z,927.65
2016-10-19T01:05:22.293Z,927.61
2016-10-19T01:06:32.799Z,927.63
2016-10-19T01:07:43.292Z,927.69
2016-10-19T01:08:54.037Z,927.66
2016-10-19T01:12:31.190Z,927.69
2016-10-19T01:13:41.672Z,927.7
2016-10-19T01:14:52.183Z,927.69
2016-10-19T01:16:02.671Z,927.63
2016-10-19T01:17:13.175Z,927.61
2016-10-19T01:18:23.671Z,927.57
2016-10-19T01:19:34.224Z,927.54
2016-10-19T01:20:44.718Z,927.61
2016-10-19T01:21:55.210Z,927.59
2016-10-19T01:23:05.704Z,927.62
2016-10-19T01:24:16.642Z,927.65
2016-10-19T01:25:27.105Z,927.66
2016-10-19T01:26:37.711Z,927.61
2016-10-19T01:27:48.207Z,927.63
2016-10-19T01:28:58.697Z,927.61
2016-10-19T01:30:09.193Z,927.63
2016-10-19T01:31:19.698Z,927.56
2016-10-19T01:32:30.323Z,927.57
2016-10-19T01:33:40.894Z,927.54
2016-10-19T01:34:51.373Z,927.53
2016-10-19T01:36:01.873Z,927.5
2016-10-19T01:37:12.371Z,927.49
2016-10-19T01:38:22.998Z,927.53
2016-10-19T01:39:33.477Z,927.56
2016-10-19T01:40:44.028Z,927.6
2016-10-19T01:41:54.575Z,927.62
2016-10-19T01:43:05.121Z,927.64
2016-10-19T01:44:15.710Z,927.63
2016-10-19T01:45:26.231Z,927.67
2016-10-19T01:46:36.720Z,927.69
2016-10-19T01:47:47.228Z,927.65
2016-10-19T01:48:57.723Z,927.65
2016-10-19T01:50:08.286Z,927.62
2016-10-19T01:51:18.770Z,927.6
2016-10-19T01:52:29.246Z,927.57
2016-10-19T01:53:39.686Z,927.57
2016-10-19T01:54:50.217Z,927.56
2016-10-19T01:56:00.742Z,927.58
2016-10-19T01:57:11.746Z,927.58
2016-10-19T01:58:22.224Z,927.57
2016-10-19T01:59:32.707Z,927.57
2016-10-19T02:00:43.207Z,927.56
2016-10-19T02:01:53.709Z,927.58
2016-10-19T02:03:04.216Z,927.58
2016-10-19T02:04:14.708Z,927.54
2016-10-19T02:05:25.185Z,927.52
2016-10-19T02:06:35.683Z,927.49
2016-10-19T02:07:46.260Z,927.43
2016-10-19T02:08:56.813Z,927.42
2016-10-19T02:10:07.303Z,927.35
2016-10-19T02:11:17.786Z,927.35
2016-10-19T02:12:28.268Z,927.33
2016-10-19T02:13:38.748Z,927.31
2016-10-19T02:14:49.280Z,927.32
2016-10-19T02:15:59.809Z,927.39
2016-10-19T02:17:10.305Z,927.38
2016-10-19T02:18:20.831Z,927.4
2016-10-19T02:19:31.488Z,927.37
2016-10-19T02:20:41.964Z,927.33
2016-10-19T02:21:52.453Z,927.33
2016-10-19T02:23:02.953Z,927.24
2016-10-19T02:24:13.474Z,927.22
2016-10-19T02:25:24.055Z,927.2
2016-10-19T02:26:34.545Z,927.13
2016-10-19T02:27:45.010Z,927.11
2016-10-19T02:28:55.492Z,927.16
2016-10-19T02:30:06.067Z,927.16
2016-10-19T02:31:16.605Z,927.12
2016-10-19T02:32:27.152Z,927.09
2016-10-19T02:33:37.708Z,927.09
2016-10-19T02:34:48.196Z,927.06
2016-10-19T02:35:58.671Z,927.09
2016-10-19T02:37:09.178Z,927.07
2016-10-19T02:38:19.670Z,927.06
2016-10-19T02:39:30.145Z,927.04
2016-10-19T02:40:40.629Z,927.02
2016-10-19T02:41:51.134Z,927
2016-10-19T02:43:01.763Z,926.99
2016-10-19T02:44:12.268Z,927.02
2016-10-19T02:45:22.766Z,926.98
2016-10-19T02:46:33.270Z,926.92
2016-10-19T02:47:43.842Z,926.95
2016-10-19T02:48:54.458Z,926.99
2016-10-19T02:50:04.923Z,926.95
2016-10-19T02:51:15.411Z,926.94
2016-10-19T02:52:25.893Z,926.95
2016-10-19T02:53:36.383Z,926.86
2016-10-19T02:54:46.894Z,926.83
2016-10-19T02:55:57.363Z,926.78
2016-10-19T02:57:07.821Z,926.83
2016-10-19T02:58:18.301Z,926.84
2016-10-19T02:59:28.801Z,926.8
2016-10-19T03:00:39.408Z,926.82
2016-10-19T03:01:49.903Z,926.82
2016-10-19T03:03:00.398Z,926.78
2016-10-19T03:04:10.922Z,926.77
2016-10-19T03:05:21.431Z,926.73
2016-10-19T03:06:32.022Z,926.74
2016-10-19T03:07:42.515Z,926.72
2016-10-19T03:08:53.013Z,926.67
2016-10-19T03:10:03.541Z,926.65
2016-10-19T03:11:14.047Z,926.66
2016-10-19T03:12:24.538Z,926.63
2016-10-19T03:13:35.101Z,926.65
2016-10-19T03:14:45.620Z,926.66
2016-10-19T03:15:56.104Z,926.66
2016-10-19T03:17:06.616Z,926.7
2016-10-19T03:18:17.227Z,926.72
2016-10-19T03:19:27.727Z,926.74
2016-10-19T03:20:38.179Z,926.78
2016-10-19T03:21:48.649Z,926.8
2016-10-19T03:22:59.137Z,926.85
2016-10-19T03:24:09.793Z,926.89
2016-10-19T03:25:20.288Z,926.94
2016-10-19T03:26:30.843Z,926.96
2016-10-19T03:27:41.357Z,926.94
2016-10-19T03:28:51.843Z,926.96
2016-10-19T03:30:02.310Z,926.98
2016-10-19T03:31:12.758Z,926.91
2016-10-19T03:32:23.212Z,926.9
2016-10-19T03:33:33.665Z,926.87
2016-10-19T03:34:44.158Z,926.82
2016-10-19T03:35:54.611Z,926.76
2016-10-19T03:37:05.068Z,926.74
2016-10-19T03:38:15.519Z,926.77
2016-10-19T03:39:25.975Z,926.78
2016-10-19T03:40:36.467Z,926.79
2016-10-19T03:41:47.032Z,926.77
2016-10-19T03:42:57.496Z,926.77
2016-10-19T03:44:07.996Z,926.78
2016-10-19T03:45:18.438Z,926.79
2016-10-19T03:46:28.904Z,926.74
2016-10-19T03:47:39.460Z,926.74
2016-10-19T03:48:49.907Z,926.68
2016-10-19T03:50:00.400Z,926.64
2016-10-19T03:51:10.896Z,926.59
2016-10-19T03:52:21.339Z,926.54
2016-10-19T03:53:31.830Z,926.51
2016-10-19T03:54:42.285Z,926.46
2016-10-19T03:55:52.745Z,926.49
2016-10-19T03:57:03.202Z,926.5
2016-10-19T03:58:14.161Z,926.49
2016-10-19T03:59:24.600Z,926.53
2016-10-19T04:00:35.055Z,926.56
2016-10-19T04:01:45.514Z,926.55
2016-10-19T04:02:55.975Z,926.58
2016-10-19T04:04:06.435Z,926.56
2016-10-19T04:05:16.888Z,926.57
2016-10-19T04:06:27.345Z,926.56
2016-10-19T04:07:37.808Z,926.54
2016-10-19T04:08:48.731Z,926.59
2016-10-19T04:09:59.221Z,926.58
2016-10-19T04:11:09.783Z,926.57
2016-10-19T04:12:20.241Z,926.58
2016-10-19T04:13:30.687Z,926.57
2016-10-19T04:14:41.140Z,926.58
2016-10-19T04:15:51.643Z,926.53
2016-10-19T04:17:02.201Z,926.5
2016-10-19T04:18:12.652Z,926.42
2016-10-19T04:19:23.103Z,926.4
2016-10-19T04:20:33.557Z,926.36
2016-10-19T04:21:44.011Z,926.37
2016-10-19T04:22:54.495Z,926.31
2016-10-19T04:24:04.954Z,926.33
2016-10-19T04:25:15.421Z,926.31
2016-10-19T04:26:25.867Z,926.32
2016-10-19T04:27:36.320Z,926.34
2016-10-19T04:28:46.774Z,926.35
2016-10-19T04:29:57.238Z,926.36
2016-10-19T04:31:07.683Z,926.29
2016-10-19T04:32:18.140Z,926.28
2016-10-19T04:33:29.082Z,926.25
2016-10-19T04:34:39.640Z,926.2
2016-10-19T04:35:50.086Z,926.07
2016-10-19T04:37:01.099Z,925.99
2016-10-19T04:38:11.664Z,925.95
2016-10-19T04:39:22.221Z,925.96
2016-10-19T04:40:32.915Z,925.97
2016-10-19T04:41:43.449Z,926.05
2016-10-19T04:42:53.993Z,926.04
2016-10-19T04:44:04.556Z,926.02
2016-10-19T04:45:15.052Z,926.01
2016-10-19T04:46:25.569Z,926.03
2016-10-19T04:47:36.079Z,926.02
2016-10-19T04:48:46.614Z,925.97
2016-10-19T04:49:57.182Z,925.94
2016-10-19T04:51:07.692Z,925.95
2016-10-19T04:52:18.191Z,925.96
2016-10-19T04:53:28.695Z,925.93
2016-10-19T04:54:39.235Z,925.96
2016-10-19T04:55:49.747Z,925.93
2016-10-19T04:57:00.280Z,925.94
2016-10-19T04:58:10.887Z,925.89
2016-10-19T04:59:21.424Z,925.84
2016-10-19T05:00:31.967Z,925.83
2016-10-19T05:01:42.520Z,925.8
2016-10-19T05:02:53.666Z,925.75
2016-10-19T05:04:04.279Z,925.74
2016-10-19T05:05:14.784Z,925.69
2016-10-19T05:06:25.288Z,925.68
2016-10-19T05:07:35.832Z,925.67
2016-10-19T05:08:46.426Z,925.7
2016-10-19T05:09:56.965Z,925.72
2016-10-19T05:11:07.503Z,925.74
2016-10-19T05:12:18.092Z,925.74
2016-10-19T05:13:28.697Z,925.71
2016-10-19T05:14:39.253Z,925.72
2016-10-19T05:15:49.794Z,925.72
2016-10-19T05:17:00.335Z,925.72
2016-10-19T05:18:10.831Z,925.66
2016-10-19T05:19:21.371Z,925.67
2016-10-19T05:20:31.883Z,925.66
2016-10-19T05:21:42.483Z,925.61
2016-10-19T05:22:53.016Z,925.61
2016-10-19T05:24:03.519Z,925.65
2016-10-19T05:25:14.039Z,925.61
2016-10-19T05:26:24.540Z,925.59
2016-10-19T05:27:35.198Z,925.64
2016-10-19T05:28:45.752Z,925.58
2016-10-19T05:29:56.284Z,925.64
2016-10-19T05:31:06.881Z,925.67
2016-10-19T05:32:17.437Z,925.66
2016-10-19T05:33:27.982Z,925.65
2016-10-19T05:34:38.484Z,925.66
2016-10-19T05:35:49.047Z,925.65
2016-10-19T05:36:59.549Z,925.68
2016-10-19T05:38:10.127Z,925.69
2016-10-19T05:39:20.637Z,925.68
2016-10-19T05:40:31.260Z,925.67
2016-10-19T05:41:41.834Z,925.66
2016-10-19T05:42:52.409Z,925.71
2016-10-19T05:44:02.924Z,925.72
2016-10-19T05:45:13.504Z,925.68
2016-10-19T05:46:24.517Z,925.7
2016-10-19T05:47:35.052Z,925.75
2016-10-19T05:48:45.608Z,925.72
2016-10-19T05:49:56.161Z,925.76
2016-10-19T05:51:06.700Z,925.77
2016-10-19T05:52:17.248Z,925.75
2016-10-19T05:53:27.821Z,925.7
2016-10-19T05:54:38.369Z,925.67
2016-10-19T05:55:49.399Z,925.68
2016-10-19T05:57:00.031Z,925.65
2016-10-19T05:58:10.596Z,925.64
2016-10-19T05:59:21.106Z,925.64
2016-10-19T06:00:31.647Z,925.63
2016-10-19T06:01:42.207Z,925.59
2016-10-19T06:02:52.791Z,925.58
2016-10-19T06:04:03.389Z,925.59
2016-10-19T06:05:13.994Z,925.55
2016-10-19T06:06:24.542Z,925.52
2016-10-19T06:07:35.049Z,925.5
2016-10-19T06:08:45.663Z,925.52
2016-10-19T06:09:56.229Z,925.53
2016-10-19T06:11:06.786Z,925.58
2016-10-19T06:12:17.333Z,925.59
2016-10-19T06:13:27.867Z,925.54
2016-10-19T06:14:38.453Z,925.54
2016-10-19T06:15:48.969Z,925.51
2016-10-19T06:16:59.452Z,925.48
2016-10-19T06:18:09.931Z,925.45
2016-10-19T06:19:20.476Z,925.43
2016-10-19T06:20:31.106Z,925.4
2016-10-19T06:21:41.645Z,925.42
2016-10-19T06:22:52.223Z,925.45
2016-10-19T06:24:03.245Z,925.46
2016-10-19T06:25:14.211Z,925.49
2016-10-19T06:26:24.767Z,925.49
2016-10-19T06:27:35.281Z,925.51
2016-10-19T06:28:45.857Z,925.5
2016-10-19T06:29:56.353Z,925.49
2016-10-19T06:31:07.424Z,925.5
2016-10-19T06:32:17.996Z,925.52
2016-10-19T06:33:28.495Z,925.55
2016-10-19T06:34:39.024Z,925.51
2016-10-19T06:35:49.572Z,925.46
2016-10-19T06:37:00.097Z,925.44
2016-10-19T06:38:10.726Z,925.45
2016-10-19T06:39:21.294Z,925.4
2016-10-19T06:40:31.853Z,925.42
2016-10-19T06:41:42.414Z,925.42
2016-10-19T06:42:52.925Z,925.42
2016-10-19T06:44:03.460Z,925.47
2016-10-19T06:45:14.015Z,925.49
2016-10-19T06:46:25.053Z,925.49
2016-10-19T06:47:35.581Z,925.53
2016-10-19T06:48:46.082Z,925.55
2016-10-19T06:49:56.700Z,925.57
2016-10-19T06:51:07.276Z,925.56
2016-10-19T06:52:17.729Z,925.48
2016-10-19T06:53:28.220Z,925.53
2016-10-19T06:54:38.695Z,925.47
2016-10-19T06:55:49.164Z,925.53
2016-10-19T06:56:59.694Z,925.51
2016-10-19T06:58:10.200Z,925.5
2016-10-19T06:59:21.259Z,925.51
2016-10-19T07:00:51.096Z,925.52
2016-10-19T07:02:01.602Z,925.5
2016-10-19T07:03:12.084Z,925.53
2016-10-19T07:04:22.604Z,925.52
2016-10-19T07:05:33.666Z,925.51
2016-10-19T07:06:44.164Z,925.45
2016-10-19T07:07:54.645Z,925.43
2016-10-19T07:09:05.139Z,925.4
2016-10-19T07:10:15.691Z,925.35
2016-10-19T07:11:26.217Z,925.33
2016-10-19T07:12:36.824Z,925.32
2016-10-19T07:13:47.823Z,925.26
2016-10-19T07:14:58.334Z,925.28
2016-10-19T07:16:08.864Z,925.29
2016-10-19T07:17:19.363Z,925.29
2016-10-19T07:18:29.882Z,925.33
2016-10-19T07:19:40.388Z,925.28
2016-10-19T07:20:50.889Z,925.31
2016-10-19T07:22:01.392Z,925.34
2016-10-19T07:23:11.906Z,925.31
2016-10-19T07:24:22.513Z,925.35
2016-10-19T07:25:33.083Z,925.35
2016-10-19T07:26:43.643Z,925.32
2016-10-19T07:27:54.696Z,925.35
2016-10-19T07:29:05.257Z,925.34
2016-10-19T07:30:15.869Z,925.3
2016-10-19T07:31:26.426Z,925.22
2016-10-19T07:32:36.968Z,925.26
2016-10-19T07:33:47.512Z,925.21
2016-10-19T07:34:58.072Z,925.19
2016-10-19T07:36:08.703Z,925.16
2016-10-19T07:37:19.207Z,925.2
2016-10-19T07:38:29.797Z,925.23
2016-10-19T07:39:40.307Z,925.18
2016-10-19T07:40:50.856Z,925.17
2016-10-19T07:42:01.596Z,925.18
2016-10-19T07:43:12.158Z,925.2
2016-10-19T07:44:22.691Z,925.24
2016-10-19T07:45:33.231Z,925.13
2016-10-19T07:46:43.778Z,925.19
2016-10-19T07:47:54.415Z,925.21
2016-10-19T07:49:05.042Z,925.17
2016-10-19T07:50:16.096Z,925.18
2016-10-19T07:51:26.700Z,925.2
2016-10-19T07:52:37.218Z,925.2
2016-10-19T07:53:47.763Z,925.22
2016-10-19T07:54:58.322Z,925.18
2016-10-19T07:56:08.884Z,925.18
2016-10-19T07:57:19.389Z,925.21
2016-10-19T07:58:29.960Z,925.27
2016-10-19T07:59:40.518Z,925.28
2016-10-19T08:00:51.075Z,925.29
2016-10-19T08:02:01.598Z,925.33
2016-10-19T08:03:12.143Z,925.31
2016-10-19T08:04:22.693Z,925.26
2016-10-19T08:05:33.350Z,925.29
2016-10-19T08:06:43.916Z,925.23
2016-10-19T08:07:54.407Z,925.3
2016-10-19T08:09:04.917Z,925.29
2016-10-19T08:10:15.428Z,925.29
2016-10-19T08:11:26.038Z,925.33
2016-10-19T08:12:36.588Z,925.29
2016-10-19T08:13:47.111Z,925.32
2016-10-19T08:14:57.635Z,925.33
2016-10-19T08:16:08.152Z,925.3
2016-10-19T08:17:18.677Z,925.32
2016-10-19T08:18:29.222Z,925.33
2016-10-19T08:19:39.748Z,925.31
2016-10-19T08:20:50.399Z,925.32
2016-10-19T08:22:00.922Z,925.36
2016-10-19T08:23:11.447Z,925.37
2016-10-19T08:24:21.952Z,925.33
2016-10-19T08:25:32.486Z,925.33
2016-10-19T08:26:43.932Z,925.29
2016-10-19T08:27:54.424Z,925.31
2016-10-19T08:29:05.015Z,925.28
2016-10-19T08:30:15.569Z,925.36
2016-10-19T08:31:26.059Z,925.37
2016-10-19T08:32:36.598Z,925.41
2016-10-19T08:33:47.091Z,925.37
2016-10-19T08:34:57.746Z,925.37
2016-10-19T08:36:08.364Z,925.37
2016-10-19T08:37:18.875Z,925.33
2016-10-19T08:38:29.426Z,925.4
2016-10-19T08:39:39.998Z,925.36
2016-10-19T08:40:50.550Z,925.36
2016-10-19T08:42:01.135Z,925.4
2016-10-19T08:43:11.673Z,925.42
2016-10-19T08:44:22.232Z,925.43
2016-10-19T08:45:32.846Z,925.46
2016-10-19T08:46:43.417Z,925.43
2016-10-19T08:47:53.967Z,925.45
2016-10-19T08:49:04.973Z,925.46
2016-10-19T08:50:15.508Z,925.47
2016-10-19T08:51:26.104Z,925.52
2016-10-19T08:52:36.773Z,925.51
2016-10-19T08:53:47.286Z,925.58
2016-10-19T08:54:57.837Z,925.63
2016-10-19T08:56:08.371Z,925.69
2016-10-19T08:57:18.949Z,925.76
2016-10-19T08:58:29.492Z,925.79
2016-10-19T08:59:40.021Z,925.81
2016-10-19T09:00:50.648Z,925.83
2016-10-19T09:02:01.192Z,925.83
2016-10-19T09:03:11.738Z,925.83
2016-10-19T09:04:22.227Z,925.87
2016-10-19T09:05:33.314Z,925.9
2016-10-19T09:06:43.798Z,925.88
2016-10-19T09:07:54.355Z,925.89
2016-10-19T09:09:04.952Z,925.91
2016-10-19T09:10:15.567Z,925.9
2016-10-19T09:11:26.115Z,925.9
2016-10-19T09:12:36.673Z,925.9
2016-10-19T09:13:47.219Z,925.91
2016-10-19T09:14:57.742Z,925.91
2016-10-19T09:16:08.407Z,925.92
2016-10-19T09:17:18.950Z,925.97
2016-10-19T09:18:29.463Z,926.01
2016-10-19T09:19:40.500Z,925.99
2016-10-19T09:20:50.960Z,926
2016-10-19T09:22:01.531Z,926.02
2016-10-19T09:23:12.064Z,926.01
2016-10-19T09:24:22.641Z,926.05
2016-10-19T09:25:33.196Z,926.08
2016-10-19T09:26:43.758Z,926.1
2016-10-19T09:27:54.432Z,926.09
2016-10-19T09:29:04.964Z,926.16
2016-10-19T09:30:15.470Z,926.22
2016-10-19T09:31:26.041Z,926.25
2016-10-19T09:32:36.608Z,926.29
2016-10-19T09:33:47.119Z,926.29
2016-10-19T09:34:57.643Z,926.37
2016-10-19T09:36:08.210Z,926.44
2016-10-19T09:37:18.784Z,926.49
2016-10-19T09:38:29.318Z,926.53
2016-10-19T09:39:39.997Z,927
2016-10-19T09:40:50.615Z,927.45
2016-10-19T09:42:01.204Z,927.07
2016-10-19T09:43:11.783Z,926.76
2016-10-19T09:44:22.403Z,926.55
2016-10-19T09:45:32.963Z,926.43
2016-10-19T09:46:43.539Z,926.48
2016-10-19T09:47:54.121Z,926.47
2016-10-19T09:49:04.697Z,926.46
2016-10-19T09:50:15.282Z,926.34
2016-10-19T09:51:25.964Z,926.33
2016-10-19T09:52:36.542Z,926.29
2016-10-19T09:53:47.124Z,926.25
2016-10-19T09:54:57.701Z,926.29
2016-10-19T09:56:08.291Z,926.27
2016-10-19T09:57:18.963Z,926.27
2016-10-19T09:58:29.540Z,926.28
2016-10-19T09:59:40.127Z,926.31
2016-10-19T10:00:50.703Z,926.32
2016-10-19T10:02:01.282Z,926.33
2016-10-19T10:03:11.868Z,926.34
2016-10-19T10:04:22.444Z,926.37
2016-10-19T10:05:33.028Z,926.4
2016-10-19T10:06:43.607Z,926.39
2016-10-19T10:07:54.216Z,926.41
2016-10-19T10:09:04.906Z,926.48
2016-10-19T10:10:15.490Z,926.47
2016-10-19T10:11:26.064Z,926.48
2016-10-19T10:12:36.633Z,926.42
2016-10-19T10:13:47.104Z,926.44
2016-10-19T10:14:57.582Z,926.41
2016-10-19T10:16:08.086Z,926.35
2016-10-19T10:17:18.549Z,926.32
2016-10-19T10:18:29.045Z,926.4
2016-10-19T10:19:39.517Z,926.47
2016-10-19T10:20:50.154Z,926.56
2016-10-19T10:22:00.687Z,926.61
2016-10-19T10:23:11.242Z,926.6
2016-10-19T10:24:21.710Z,926.64
2016-10-19T10:25:32.690Z,926.62
2016-10-19T10:26:43.315Z,926.67
2016-10-19T10:27:53.821Z,926.69
2016-10-19T10:29:04.303Z,926.81
2016-10-19T10:30:14.774Z,926.83
2016-10-19T10:31:25.277Z,926.85
2016-10-19T10:32:35.802Z,927.02
2016-10-19T10:33:46.309Z,927.15
2016-10-19T10:34:56.852Z,927.17
2016-10-19T10:36:07.357Z,927.23
2016-10-19T10:37:18.331Z,927.26
2016-10-19T10:38:28.913Z,927.24
2016-10-19T10:39:39.439Z,927.28
2016-10-19T10:40:50.407Z,927.35
2016-10-19T10:42:00.916Z,927.45
2016-10-19T10:43:11.406Z,927.52
2016-10-19T10:44:21.887Z,927.54
2016-10-19T10:45:32.376Z,927.65
2016-10-19T10:46:42.920Z,927.59
2016-10-19T10:47:53.435Z,927.63
2016-10-19T10:49:03.988Z,927.57
2016-10-19T10:50:14.968Z,927.61
2016-10-19T10:51:25.457Z,927.77
2016-10-19T10:52:35.981Z,927.82
2016-10-19T10:53:46.456Z,927.96
2016-10-19T10:54:56.961Z,928.08
2016-10-19T10:56:07.489Z,928.39
2016-10-19T10:57:18.047Z,928.85
2016-10-19T10:58:28.581Z,929.68
2016-10-19T10:59:39.103Z,930.2
2016-10-19T11:00:49.664Z,930.77
2016-10-19T11:02:00.296Z,931.66
2016-10-19T11:03:10.800Z,931.53
2016-10-19T11:04:21.331Z,930.88
2016-10-19T11:05:31.842Z,930.23
2016-10-19T11:06:42.377Z,930.01
2016-10-19T11:07:52.988Z,930.2
2016-10-19T11:09:03.513Z,929.57
2016-10-19T11:10:14.044Z,929.47
2016-10-19T11:11:25.036Z,929.68
2016-10-19T11:12:35.577Z,929.95
2016-10-19T11:13:46.125Z,930.45
2016-10-19T11:14:56.791Z,931
2016-10-19T11:16:07.279Z,930.94
2016-10-19T11:17:17.805Z,931.34
2016-10-19T11:18:28.300Z,931.04
2016-10-19T11:19:38.842Z,930.83
2016-10-19T11:20:49.412Z,931.24
2016-10-19T11:21:59.917Z,931.31
2016-10-19T11:23:10.435Z,931.45
2016-10-19T11:24:20.932Z,931.05
2016-10-19T11:25:31.541Z,931.59
2016-10-19T11:26:42.104Z,931.89
2016-10-19T11:27:52.614Z,932.17
2016-10-19T11:29:03.086Z,932.25
2016-10-19T11:30:13.562Z,932.51
2016-10-19T11:31:24.077Z,932.58
2016-10-19T11:32:34.581Z,932.83
2016-10-19T11:33:45.078Z,932.85
2016-10-19T11:34:55.573Z,933.13
2016-10-19T11:36:06.088Z,933.96
2016-10-19T11:37:16.757Z,933.8
2016-10-19T11:38:27.280Z,933.93
2016-10-19T11:39:37.801Z,933.97
2016-10-19T11:40:48.314Z,934.28
2016-10-19T11:41:58.785Z,935
2016-10-19T11:43:09.293Z,935.08
2016-10-19T11:44:19.785Z,934.45
2016-10-19T11:45:30.297Z,934.77
2016-10-19T11:46:40.799Z,934.86
2016-10-19T11:47:51.300Z,935.1
2016-10-19T11:49:01.882Z,934.95
2016-10-19T11:50:12.404Z,935.05
2016-10-19T11:51:22.956Z,934.48
2016-10-19T11:52:33.477Z,935.53
2016-10-19T11:53:43.977Z,935.05
2016-10-19T11:54:54.575Z,935.16
2016-10-19T11:56:05.087Z,935.1
2016-10-19T11:57:15.647Z,935.52
2016-10-19T11:58:26.214Z,936.15
2016-10-19T11:59:36.790Z,936.17
2016-10-19T12:00:47.311Z,935.76
2016-10-19T12:01:57.819Z,936.96
2016-10-19T12:03:08.316Z,937.1
2016-10-19T12:04:18.810Z,937.65
2016-10-19T12:05:29.315Z,937.76
2016-10-19T12:06:39.936Z,938.24
2016-10-19T12:07:50.457Z,939.1
2016-10-19T12:09:00.994Z,939.03
2016-10-19T12:10:11.571Z,939.94
2016-10-19T12:11:22.105Z,940.38
2016-10-19T12:12:32.655Z,941.02
2016-10-19T12:13:43.162Z,941.25
2016-10-19T12:14:53.684Z,942.12
2016-10-19T12:16:04.723Z,943.51
2016-10-19T12:17:15.253Z,943.56
2016-10-19T12:18:25.873Z,943.67
2016-10-19T12:19:36.888Z,945.07
2016-10-19T12:20:47.431Z,946.13
2016-10-19T12:21:57.926Z,946.12
2016-10-19T12:23:08.420Z,946.2
2016-10-19T12:24:19.470Z,947.16
2016-10-19T12:25:30.454Z,947.23
2016-10-19T12:26:41.047Z,947.46
2016-10-19T12:27:51.528Z,946.51
2016-10-19T12:29:02.017Z,947
2016-10-19T12:30:12.484Z,946.79
2016-10-19T12:31:22.961Z,947.66
2016-10-19T12:32:33.443Z,948.57
2016-10-19T12:33:43.916Z,949.53
2016-10-19T12:34:54.402Z,950.67
2016-10-19T12:36:04.878Z,949.65
2016-10-19T12:37:15.349Z,949.32
2016-10-19T12:38:25.823Z,949.8
2016-10-19T12:39:36.300Z,949.95
2016-10-19T12:40:46.774Z,950.11
2016-10-19T12:41:57.356Z,951.79
2016-10-19T12:43:07.831Z,952.17
2016-10-19T12:44:18.305Z,951.16
2016-10-19T12:45:28.785Z,949.17
2016-10-19T12:46:39.753Z,950.37
2016-10-19T12:47:50.328Z,948.92
2016-10-19T12:49:00.801Z,947.93
2016-10-19T12:50:11.273Z,946.96
2016-10-19T12:51:21.747Z,945.56
2016-10-19T12:52:32.217Z,943.72
2016-10-19T12:53:42.702Z,942.32
2016-10-19T12:54:53.176Z,941.12
2016-10-19T12:56:03.907Z,938.95
2016-10-19T12:57:14.380Z,938.14
2016-10-19T12:58:24.890Z,936.82
2016-10-19T12:59:35.464Z,934.97
2016-10-19T13:00:45.955Z,933.36
2016-10-19T13:01:56.445Z,932.61
2016-10-19T13:03:06.918Z,931.86
2016-10-19T13:04:17.423Z,931.33
2016-10-19T13:05:28.045Z,930.6
2016-10-19T13:06:38.522Z,929.73
2016-10-19T13:07:48.998Z,929.63
2016-10-19T13:08:59.515Z,929.19
2016-10-19T13:10:10.006Z,928.85
2016-10-19T13:11:20.633Z,928.4
2016-10-19T13:12:31.141Z,928.23
2016-10-19T13:13:41.629Z,928.05
2016-10-19T13:14:52.596Z,927.74
2016-10-19T13:16:03.069Z,927.52
2016-10-19T13:17:13.554Z,927.39
2016-10-19T13:18:24.054Z,927.09
2016-10-19T13:19:34.539Z,926.99
2016-10-19T13:20:45.022Z,926.94
2016-10-19T13:21:55.508Z,926.89
2016-10-19T13:23:06.024Z,926.78
2016-10-19T13:24:16.510Z,926.74
2016-10-19T13:25:26.999Z,926.69
2016-10-19T13:26:37.502Z,926.63
2016-10-19T13:27:48.449Z,926.41
2016-10-19T13:28:59.053Z,926.36
2016-10-19T13:30:09.544Z,926.35
2016-10-19T13:31:20.242Z,926.26
2016-10-19T13:32:30.727Z,926.21
2016-10-19T13:33:41.209Z,926.16
2016-10-19T13:34:51.739Z,926.04
2016-10-19T13:36:02.301Z,925.98
2016-10-19T13:37:12.849Z,925.95
2016-10-19T13:38:23.807Z,925.88
2016-10-19T13:39:34.384Z,925.8
2016-10-19T13:40:45.009Z,925.78
2016-10-19T13:41:56.066Z,925.72
2016-10-19T13:43:06.597Z,925.67
2016-10-19T13:44:17.154Z,925.63
2016-10-19T13:45:27.734Z,925.58
2016-10-19T13:46:38.345Z,925.48
2016-10-19T13:48:03.427Z,925.48
2016-10-19T13:49:13.941Z,925.45
2016-10-19T13:50:24.979Z,925.43
2016-10-19T13:51:35.488Z,925.43
2016-10-19T13:52:46.465Z,925.38
2016-10-19T13:53:57.445Z,925.41
2016-10-19T13:55:08.414Z,925.37
2016-10-19T13:56:19.436Z,925.34
2016-10-19T13:57:30.441Z,925.32
2016-10-19T13:58:40.986Z,925.28
2016-10-19T13:59:51.516Z,925.26
2016-10-19T14:01:02.020Z,925.22
2016-10-19T14:02:12.534Z,925.23
2016-10-19T14:03:23.203Z,925.24
2016-10-19T14:04:33.783Z,925.2
2016-10-19T14:05:44.323Z,925.16
2016-10-19T14:06:54.931Z,925.18
2016-10-19T14:08:05.436Z,925.15
2016-10-19T14:09:16.034Z,925.13
2016-10-19T14:10:26.553Z,925.18
2016-10-19T14:11:37.083Z,925.21
2016-10-19T14:12:47.588Z,925.21
2016-10-19T14:13:58.154Z,925.2
2016-10-19T14:15:08.661Z,925.22
2016-10-19T14:16:19.278Z,925.17
2016-10-19T14:17:29.813Z,925.12
2016-10-19T14:18:40.297Z,925.13
2016-10-19T14:19:50.824Z,925.1
2016-10-19T14:21:01.406Z,925.14
2016-10-19T14:22:12.454Z,925.11
2016-10-19T14:23:22.963Z,925.13
2016-10-19T14:24:33.562Z,925.07
2016-10-19T14:25:44.068Z,925.04
2016-10-19T14:26:54.706Z,925.01
2016-10-19T14:28:05.212Z,925.04
2016-10-19T14:29:15.744Z,924.97
2016-10-19T14:30:26.262Z,924.98
2016-10-19T14:31:36.771Z,925
2016-10-19T14:32:47.316Z,924.97
2016-10-19T14:33:57.834Z,924.99
2016-10-19T14:35:08.374Z,924.99
2016-10-19T14:36:18.914Z,924.99
2016-10-19T14:37:29.467Z,925.03
2016-10-19T14:38:40.087Z,924.98
2016-10-19T14:39:50.637Z,924.95
2016-10-19T14:41:01.681Z,924.99
2016-10-19T14:42:12.155Z,924.96
2016-10-19T14:43:22.692Z,924.97
2016-10-19T14:44:33.210Z,924.94
2016-10-19T14:45:43.687Z,924.91
2016-10-19T14:46:54.743Z,924.84
2016-10-19T14:48:05.300Z,924.88
2016-10-19T14:49:15.773Z,924.77